createdAt,value
2022-08-27T00:00:34.109Z,6.38
2022-08-27T00:03:02.610Z,7.65
2022-08-27T00:05:29.791Z,10.80
2022-08-27T00:07:56.520Z,6.85
2022-08-27T00:10:26.011Z,7.75
2022-08-27T00:12:54.088Z,7.07
2022-08-27T00:15:21.306Z,8.55
2022-08-27T00:17:48.419Z,9.52
2022-08-27T00:20:20.050Z,8.05
2022-08-27T00:22:46.992Z,6.20
2022-08-27T00:25:14.361Z,5.38
2022-08-27T00:27:41.105Z,6.07
2022-08-27T00:30:11.055Z,7.50
2022-08-27T00:32:38.727Z,7.30
2022-08-27T00:35:06.665Z,6.97
2022-08-27T00:37:33.915Z,7.18
2022-08-27T00:40:01.094Z,6.07
2022-08-27T00:42:27.849Z,6.15
2022-08-27T00:44:59.282Z,10.30
2022-08-27T00:47:31.492Z,6.40
2022-08-27T00:50:08.393Z,6.28
2022-08-27T00:52:41.839Z,6.35
2022-08-27T00:55:12.881Z,7.85
2022-08-27T00:57:42.132Z,5.47
2022-08-27T01:00:14.661Z,5.38
2022-08-27T01:02:42.111Z,6.13
2022-08-27T01:05:12.782Z,9.70
2022-08-27T01:07:42.829Z,7.95
2022-08-27T01:10:13.306Z,7.00
2022-08-27T01:12:40.623Z,7.22
2022-08-27T01:15:13.462Z,11.15
2022-08-27T01:17:44.553Z,7.82
2022-08-27T01:20:19.952Z,7.00
2022-08-27T01:23:07.145Z,7.97
2022-08-27T01:25:34.208Z,6.70
2022-08-27T01:28:03.488Z,9.88
2022-08-27T01:30:31.285Z,13.05
2022-08-27T01:32:58.124Z,13.70
2022-08-27T01:35:25.505Z,14.43
2022-08-27T01:37:54.295Z,12.45
2022-08-27T01:40:24.067Z,18.73
2022-08-27T01:42:54.814Z,20.40
2022-08-27T01:45:25.344Z,19.98
2022-08-27T01:47:52.501Z,20.30
2022-08-27T01:50:26.767Z,20.55
2022-08-27T01:52:54.409Z,19.73
2022-08-27T01:55:25.291Z,20.05
2022-08-27T01:57:54.242Z,19.83
2022-08-27T02:00:28.106Z,17.30
2022-08-27T02:02:56.477Z,19.83
2022-08-27T02:05:24.152Z,19.73
2022-08-27T02:07:51.434Z,17.30
2022-08-27T02:10:22.983Z,18.70
2022-08-27T02:12:49.807Z,20.67
2022-08-27T02:15:17.218Z,19.97
2022-08-27T02:17:44.350Z,22.60
2022-08-27T02:20:11.707Z,24.37
2022-08-27T02:22:38.948Z,26.63
2022-08-27T02:25:10.371Z,29.00
2022-08-27T02:27:37.301Z,27.23
2022-08-27T02:30:05.877Z,28.40
2022-08-27T02:32:32.995Z,28.87
2022-08-27T02:35:00.537Z,27.80
2022-08-27T02:37:28.442Z,25.97
2022-08-27T02:39:55.475Z,25.20
2022-08-27T02:42:22.648Z,25.97
2022-08-27T02:44:49.578Z,28.67
2022-08-27T02:47:16.906Z,30.20
2022-08-27T02:49:44.395Z,28.83
2022-08-27T02:52:12.619Z,35.00
2022-08-27T02:54:40.219Z,29.25
2022-08-27T02:57:07.317Z,29.30
2022-08-27T02:59:34.060Z,29.67
2022-08-27T03:02:01.306Z,25.30
2022-08-27T03:04:29.245Z,26.37
2022-08-27T03:06:56.620Z,26.30
2022-08-27T03:09:23.714Z,25.63
2022-08-27T03:11:50.962Z,23.57
2022-08-27T03:14:17.672Z,24.00
2022-08-27T03:16:44.422Z,25.60
2022-08-27T03:19:11.439Z,23.37
2022-08-27T03:21:38.571Z,24.07
2022-08-27T03:24:09.238Z,28.27
2022-08-27T03:26:39.065Z,25.77
2022-08-27T03:29:07.761Z,26.73
2022-08-27T03:31:34.760Z,22.67
2022-08-27T03:34:04.462Z,20.83
2022-08-27T03:36:31.690Z,21.25
2022-08-27T03:38:58.797Z,22.15
2022-08-27T03:41:43.469Z,22.20
2022-08-27T03:44:12.209Z,19.23
2022-08-27T03:46:48.769Z,17.50
2022-08-27T03:49:16.559Z,19.23
2022-08-27T03:51:47.864Z,17.63
2022-08-27T03:54:14.649Z,17.20
2022-08-27T03:56:41.588Z,19.30
2022-08-27T03:59:08.766Z,17.70
2022-08-27T04:01:35.859Z,20.97
2022-08-27T04:04:03.379Z,21.70
2022-08-27T04:06:30.173Z,19.50
2022-08-27T04:08:56.865Z,19.67
2022-08-27T04:11:24.132Z,18.30
2022-08-27T04:13:51.359Z,22.20
2022-08-27T04:16:18.182Z,17.50
2022-08-27T04:18:44.983Z,18.53
2022-08-27T04:21:13.791Z,19.57
2022-08-27T04:23:42.012Z,19.07
2022-08-27T04:26:11.055Z,20.27
2022-08-27T04:28:38.775Z,22.63
2022-08-27T04:31:06.789Z,25.90
2022-08-27T04:33:38.675Z,22.83
2022-08-27T04:36:08.588Z,20.10
2022-08-27T04:38:35.716Z,24.33
2022-08-27T04:41:23.144Z,21.50
2022-08-27T04:43:52.769Z,22.63
2022-08-27T04:46:24.812Z,18.57
2022-08-27T04:48:52.330Z,15.77
2022-08-27T04:51:20.805Z,16.87
2022-08-27T04:53:49.532Z,18.87
2022-08-27T04:56:18.808Z,16.25
2022-08-27T04:58:45.967Z,15.52
2022-08-27T05:01:18.079Z,14.97
2022-08-27T05:03:45.636Z,19.85
2022-08-27T05:06:13.324Z,15.37
2022-08-27T05:08:40.681Z,17.43
2022-08-27T05:11:09.399Z,15.40
2022-08-27T05:13:37.945Z,22.20
2022-08-27T05:16:07.866Z,21.15
2022-08-27T05:18:43.107Z,20.93
2022-08-27T05:21:20.082Z,16.47
2022-08-27T05:23:47.600Z,20.67
2022-08-27T05:26:15.083Z,18.20
2022-08-27T05:28:41.926Z,17.83
2022-08-27T05:31:10.473Z,18.20
2022-08-27T05:33:38.509Z,20.33
2022-08-27T05:36:06.401Z,20.30
2022-08-27T05:38:34.308Z,17.93
2022-08-27T05:41:10.535Z,19.10
2022-08-27T05:43:38.615Z,15.97
2022-08-27T05:46:07.217Z,15.40
2022-08-27T05:48:37.464Z,14.50
2022-08-27T05:51:09.289Z,14.63
2022-08-27T05:53:36.949Z,14.83
2022-08-27T05:56:03.854Z,12.77
2022-08-27T05:58:49.623Z,16.23
2022-08-27T06:01:20.712Z,15.37
2022-08-27T06:03:47.411Z,11.90
2022-08-27T06:06:14.382Z,14.33
2022-08-27T06:08:41.485Z,13.23
2022-08-27T06:11:08.209Z,9.90
2022-08-27T06:13:36.191Z,11.80
2022-08-27T06:16:09.675Z,13.47
2022-08-27T06:18:38.405Z,10.07
2022-08-27T06:21:06.158Z,9.30
2022-08-27T06:23:33.389Z,11.43
2022-08-27T06:26:00.381Z,9.67
2022-08-27T06:28:29.699Z,11.67
2022-08-27T06:31:23.208Z,10.43
2022-08-27T06:33:51.785Z,8.97
2022-08-27T06:36:20.543Z,11.33
2022-08-27T06:38:47.754Z,11.27
2022-08-27T06:41:23.539Z,13.07
2022-08-27T06:43:51.944Z,15.02
2022-08-27T06:46:20.664Z,8.40
2022-08-27T06:48:48.390Z,10.07
2022-08-27T06:51:19.725Z,8.63
2022-08-27T06:53:47.456Z,9.17
2022-08-27T06:56:16.796Z,8.23
2022-08-27T06:58:44.082Z,12.57
2022-08-27T07:01:16.699Z,9.97
2022-08-27T07:03:44.418Z,8.03
2022-08-27T07:06:12.765Z,10.67
2022-08-27T07:08:40.519Z,9.33
2022-08-27T07:11:08.606Z,10.47
2022-08-27T07:13:36.110Z,11.30
2022-08-27T07:16:07.542Z,9.00
2022-08-27T07:18:34.911Z,11.47
2022-08-27T07:21:04.113Z,13.10
2022-08-27T07:23:32.810Z,11.32
2022-08-27T07:26:00.091Z,14.33
2022-08-27T07:28:28.194Z,10.07
2022-08-27T07:30:55.491Z,10.23
2022-08-27T07:33:22.289Z,12.70
2022-08-27T07:35:49.507Z,12.17
2022-08-27T07:38:16.267Z,11.65
2022-08-27T07:40:43.394Z,13.60
2022-08-27T07:43:29.297Z,11.70
2022-08-27T07:45:57.141Z,15.47
2022-08-27T07:48:24.559Z,14.33
2022-08-27T07:50:52.134Z,12.43
2022-08-27T07:53:19.547Z,9.75
2022-08-27T07:55:46.967Z,11.40
2022-08-27T07:58:18.556Z,12.53
2022-08-27T08:00:46.489Z,12.17
2022-08-27T08:03:13.743Z,11.53
2022-08-27T08:05:44.180Z,12.27
2022-08-27T08:08:11.850Z,12.20
2022-08-27T08:10:40.442Z,13.37
2022-08-27T08:13:07.997Z,11.37
2022-08-27T08:15:34.881Z,10.27
2022-08-27T08:18:02.299Z,11.82
2022-08-27T08:20:56.393Z,8.97
2022-08-27T08:23:16.337Z,8.17
2022-08-27T08:25:43.452Z,9.07
2022-08-27T08:28:11.466Z,10.63
2022-08-27T08:30:38.895Z,10.10
2022-08-27T08:33:05.693Z,15.40
2022-08-27T08:35:35.064Z,9.23
2022-08-27T08:38:08.099Z,10.20
2022-08-27T08:40:36.773Z,10.88
2022-08-27T08:43:06.676Z,10.68
2022-08-27T08:45:34.961Z,10.97
2022-08-27T08:48:07.343Z,10.60
2022-08-27T08:50:49.281Z,9.13
2022-08-27T08:53:47.151Z,11.27
2022-08-27T08:56:21.398Z,9.13
2022-08-27T08:58:52.206Z,9.85
2022-08-27T09:01:21.420Z,9.75
2022-08-27T09:03:59.335Z,8.97
2022-08-27T09:06:37.682Z,12.90
2022-08-27T09:09:16.424Z,7.83
2022-08-27T09:11:49.930Z,11.32
2022-08-27T09:14:20.314Z,9.60
2022-08-27T09:16:49.922Z,10.77
2022-08-27T09:19:17.119Z,8.53
2022-08-27T09:22:04.407Z,9.60
2022-08-27T09:24:49.645Z,10.95
2022-08-27T09:27:16.797Z,10.55
2022-08-27T09:29:48.491Z,7.70
2022-08-27T09:32:15.890Z,8.38
2022-08-27T09:34:43.928Z,9.35
2022-08-27T09:37:12.668Z,9.50
2022-08-27T09:39:54.267Z,8.70
2022-08-27T09:42:48.768Z,9.85
2022-08-27T09:45:24.820Z,8.68
2022-08-27T09:48:10.096Z,6.75
2022-08-27T09:50:43.584Z,8.23
2022-08-27T09:53:25.675Z,9.27
2022-08-27T09:56:00.584Z,10.00
2022-08-27T09:58:29.521Z,9.80
2022-08-27T10:01:16.942Z,8.75
2022-08-27T10:03:44.191Z,6.50
2022-08-27T10:06:11.808Z,10.23
2022-08-27T10:08:43.904Z,9.10
2022-08-27T10:11:32.795Z,8.88
2022-08-27T10:14:16.345Z,6.90
2022-08-27T10:16:54.605Z,9.88
2022-08-27T10:19:51.414Z,12.57
2022-08-27T10:22:31.982Z,11.82
2022-08-27T10:25:17.774Z,9.40
2022-08-27T10:27:44.435Z,10.20
2022-08-27T10:30:15.893Z,8.00
2022-08-27T10:33:06.194Z,7.35
2022-08-27T10:35:33.275Z,7.68
2022-08-27T10:38:00.373Z,5.82
2022-08-27T10:40:55.799Z,7.90
2022-08-27T10:43:49.454Z,6.00
2022-08-27T10:46:28.204Z,8.07
2022-08-27T10:49:01.459Z,9.50
2022-08-27T10:51:38.468Z,8.60
2022-08-27T10:54:05.812Z,7.57
2022-08-27T10:56:38.183Z,9.30
2022-08-27T10:59:27.211Z,9.75
2022-08-27T11:02:00.598Z,7.53
2022-08-27T11:04:42.222Z,4.65
2022-08-27T11:07:13.642Z,6.47
2022-08-27T11:09:59.814Z,7.55
2022-08-27T11:12:30.734Z,7.75
2022-08-27T11:15:02.741Z,8.93
2022-08-27T11:17:36.355Z,7.47
2022-08-27T11:20:35.467Z,5.70
2022-08-27T11:23:30.846Z,8.95
2022-08-27T11:26:02.570Z,8.40
2022-08-27T11:29:00.976Z,7.95
2022-08-27T11:31:40.695Z,6.68
2022-08-27T11:34:18.476Z,5.88
2022-08-27T11:37:09.886Z,6.95
2022-08-27T11:40:07.721Z,7.90
2022-08-27T11:42:46.490Z,7.05
2022-08-27T11:45:21.372Z,5.85
2022-08-27T11:48:01.092Z,6.93
2022-08-27T11:50:31.078Z,5.95
2022-08-27T11:53:07.204Z,7.05
2022-08-27T11:55:36.681Z,5.60
2022-08-27T11:58:27.004Z,7.35
2022-08-27T12:00:54.220Z,6.85
2022-08-27T12:03:23.808Z,9.43
2022-08-27T12:05:53.689Z,7.45
2022-08-27T12:08:27.008Z,8.43
2022-08-27T12:11:24.655Z,8.73
2022-08-27T12:14:15.653Z,9.75
2022-08-27T12:16:55.858Z,6.63
2022-08-27T12:19:22.948Z,6.85
2022-08-27T12:22:08.277Z,8.70
2022-08-27T12:24:49.982Z,8.43
2022-08-27T12:27:25.571Z,10.07
2022-08-27T12:29:56.880Z,7.22
2022-08-27T12:32:26.573Z,11.65
2022-08-27T12:35:25.520Z,6.13
2022-08-27T12:37:57.757Z,9.52
2022-08-27T12:40:38.326Z,7.32
2022-08-27T12:43:07.199Z,9.80
2022-08-27T12:45:41.522Z,9.48
2022-08-27T12:48:09.801Z,7.97
2022-08-27T12:50:37.201Z,5.93
2022-08-27T12:53:18.042Z,10.75
2022-08-27T12:55:49.488Z,5.30
2022-08-27T12:58:19.528Z,9.77
2022-08-27T13:01:07.407Z,8.68
2022-08-27T13:03:44.101Z,7.07
2022-08-27T13:06:28.534Z,5.28
2022-08-27T13:08:57.497Z,6.57
2022-08-27T13:11:28.103Z,6.68
2022-08-27T13:14:10.179Z,8.93
2022-08-27T13:16:41.919Z,7.07
2022-08-27T13:19:34.219Z,7.00
2022-08-27T13:22:02.396Z,7.70
2022-08-27T13:24:44.233Z,6.72
2022-08-27T13:27:11.428Z,5.70
2022-08-27T13:29:40.371Z,4.57
2022-08-27T13:32:07.470Z,7.22
2022-08-27T13:34:37.993Z,6.07
2022-08-27T13:37:18.677Z,7.80
2022-08-27T13:39:45.431Z,6.65
2022-08-27T13:42:12.760Z,5.72
2022-08-27T13:44:41.870Z,5.18
2022-08-27T13:47:20.352Z,6.38
2022-08-27T13:49:48.340Z,6.90
2022-08-27T13:52:36.170Z,7.32
2022-08-27T13:55:14.990Z,8.18
2022-08-27T13:57:45.938Z,6.25
2022-08-27T14:00:19.434Z,5.07
2022-08-27T14:02:56.244Z,5.63
2022-08-27T14:05:23.723Z,8.05
2022-08-27T14:07:57.658Z,4.88
2022-08-27T14:10:25.272Z,8.18
2022-08-27T14:13:01.452Z,5.20
2022-08-27T14:15:36.988Z,7.28
2022-08-27T14:18:07.050Z,6.25
2022-08-27T14:20:34.729Z,5.28
2022-08-27T14:23:01.480Z,6.78
2022-08-27T14:25:28.597Z,6.75
2022-08-27T14:27:57.243Z,6.07
2022-08-27T14:30:29.069Z,6.28
2022-08-27T14:33:00.577Z,7.75
2022-08-27T14:35:29.556Z,5.53
2022-08-27T14:37:56.919Z,9.50
2022-08-27T14:40:23.759Z,9.95
2022-08-27T14:42:50.956Z,8.02
2022-08-27T14:45:18.456Z,14.80
2022-08-27T14:47:45.294Z,12.50
2022-08-27T14:50:13.510Z,7.32
2022-08-27T14:52:40.827Z,6.03
2022-08-27T14:55:10.856Z,5.93
2022-08-27T14:57:38.289Z,6.22
2022-08-27T15:00:07.108Z,7.57
2022-08-27T15:02:34.294Z,9.30
2022-08-27T15:05:01.161Z,12.93
2022-08-27T15:07:37.877Z,6.25
2022-08-27T15:10:06.275Z,6.95
2022-08-27T15:12:33.609Z,4.70
2022-08-27T15:15:00.708Z,7.10
2022-08-27T15:17:34.667Z,6.93
2022-08-27T15:20:05.629Z,6.03
2022-08-27T15:22:34.284Z,4.97
2022-08-27T15:25:03.227Z,4.53
2022-08-27T15:27:38.070Z,8.48
2022-08-27T15:30:12.171Z,7.22
2022-08-27T15:32:45.888Z,7.65
2022-08-27T15:35:18.555Z,7.85
2022-08-27T15:37:45.721Z,5.15
2022-08-27T15:40:15.361Z,8.60
2022-08-27T15:42:42.585Z,8.82
2022-08-27T15:45:11.403Z,7.65
2022-08-27T15:47:38.555Z,7.90
2022-08-27T15:50:06.535Z,11.02
2022-08-27T15:52:40.794Z,10.32
2022-08-27T15:55:21.138Z,11.77
2022-08-27T15:57:48.553Z,7.53
2022-08-27T16:00:16.870Z,7.45
2022-08-27T16:02:44.714Z,7.75
2022-08-27T16:05:13.805Z,11.02
2022-08-27T16:07:40.740Z,10.35
2022-08-27T16:10:08.753Z,9.55
2022-08-27T16:12:35.928Z,8.50
2022-08-27T16:15:05.278Z,10.65
2022-08-27T16:17:32.664Z,13.10
2022-08-27T16:19:59.385Z,13.43
2022-08-27T16:22:26.189Z,10.98
2022-08-27T16:24:53.334Z,8.60
2022-08-27T16:27:20.459Z,11.23
2022-08-27T16:29:47.165Z,8.55
2022-08-27T16:32:17.161Z,6.03
2022-08-27T16:34:47.304Z,10.77
2022-08-27T16:37:14.695Z,7.97
2022-08-27T16:39:41.475Z,7.03
2022-08-27T16:42:10.211Z,5.90
2022-08-27T16:44:37.778Z,7.47
2022-08-27T16:47:05.994Z,8.75
2022-08-27T16:49:51.147Z,6.07
2022-08-27T16:52:19.611Z,6.43
2022-08-27T16:54:46.652Z,12.25
2022-08-27T16:57:13.798Z,8.75
2022-08-27T16:59:41.014Z,13.43
2022-08-27T17:02:17.479Z,11.80
2022-08-27T17:04:49.250Z,8.20
2022-08-27T17:07:26.061Z,8.93
2022-08-27T17:09:52.861Z,7.85
2022-08-27T17:12:24.524Z,6.10
2022-08-27T17:14:55.637Z,6.55
2022-08-27T17:17:22.676Z,7.55
2022-08-27T17:19:49.454Z,6.47
2022-08-27T17:22:16.711Z,7.65
2022-08-27T17:24:43.407Z,8.38
2022-08-27T17:27:10.638Z,5.28
2022-08-27T17:29:37.419Z,8.10
2022-08-27T17:32:09.367Z,5.97
2022-08-27T17:34:36.756Z,8.32
2022-08-27T17:37:03.631Z,5.20
2022-08-27T17:39:31.017Z,4.47
2022-08-27T17:41:58.603Z,8.18
2022-08-27T17:44:29.766Z,5.93
2022-08-27T17:47:01.231Z,4.78
2022-08-27T17:49:30.924Z,4.85
2022-08-27T17:52:00.653Z,6.53
2022-08-27T17:54:32.524Z,6.72
2022-08-27T17:57:00.606Z,4.90
2022-08-27T17:59:27.821Z,4.75
2022-08-27T18:01:56.535Z,4.13
2022-08-27T18:04:23.903Z,4.72
2022-08-27T18:06:51.084Z,5.45
2022-08-27T18:09:18.215Z,7.97
2022-08-27T18:11:46.272Z,7.97
2022-08-27T18:14:13.665Z,8.88
2022-08-27T18:16:45.560Z,7.00
2022-08-27T18:19:12.442Z,5.85
2022-08-27T18:21:46.568Z,4.82
2022-08-27T18:24:14.772Z,5.40
2022-08-27T18:26:41.690Z,4.85
2022-08-27T18:29:08.810Z,5.45
2022-08-27T18:31:35.978Z,14.63
2022-08-27T18:34:02.811Z,7.93
2022-08-27T18:36:30.005Z,8.45
2022-08-27T18:38:57.550Z,7.03
2022-08-27T18:41:25.504Z,6.50
2022-08-27T18:43:52.718Z,2.92
2022-08-27T18:46:19.510Z,5.35
2022-08-27T18:48:46.382Z,7.50
2022-08-27T18:51:15.417Z,5.07
2022-08-27T18:53:44.340Z,7.65
2022-08-27T18:56:16.652Z,7.60
2022-08-27T18:58:44.118Z,7.78
2022-08-27T19:01:15.389Z,12.30
2022-08-27T19:03:46.718Z,10.18
2022-08-27T19:06:16.101Z,6.18
2022-08-27T19:08:44.653Z,7.25
2022-08-27T19:11:11.603Z,5.22
2022-08-27T19:13:38.766Z,5.18
2022-08-27T19:16:07.886Z,5.77
2022-08-27T19:18:38.173Z,5.93
2022-08-27T19:21:05.989Z,5.15
2022-08-27T19:23:33.133Z,5.38
2022-08-27T19:26:01.573Z,6.95
2022-08-27T19:28:38.742Z,9.02
2022-08-27T19:31:07.126Z,5.72
2022-08-27T19:33:34.478Z,7.22
2022-08-27T19:36:01.706Z,5.93
2022-08-27T19:38:31.610Z,6.35
2022-08-27T19:41:00.151Z,7.65
2022-08-27T19:43:27.452Z,11.25
2022-08-27T19:45:56.029Z,20.98
2022-08-27T19:48:23.433Z,20.70
2022-08-27T19:50:50.818Z,18.48
2022-08-27T19:53:17.791Z,22.02
2022-08-27T19:55:46.030Z,9.13
2022-08-27T19:58:14.978Z,8.07
2022-08-27T20:00:42.414Z,4.85
2022-08-27T20:03:09.402Z,8.98
2022-08-27T20:05:36.781Z,6.72
2022-08-27T20:08:04.657Z,5.18
2022-08-27T20:10:36.555Z,8.53
2022-08-27T20:13:04.993Z,6.00
2022-08-27T20:15:32.431Z,5.18
2022-08-27T20:17:59.400Z,4.50
2022-08-27T20:20:27.894Z,3.92
2022-08-27T20:22:55.822Z,6.70
2022-08-27T20:25:23.808Z,7.22
2022-08-27T20:27:52.090Z,5.13
2022-08-27T20:30:22.927Z,5.80
2022-08-27T20:32:50.625Z,4.22
2022-08-27T20:35:18.264Z,4.63
2022-08-27T20:37:46.227Z,4.95
2022-08-27T20:40:22.493Z,5.88
2022-08-27T20:42:49.513Z,9.40
2022-08-27T20:45:17.112Z,6.80
2022-08-27T20:47:47.337Z,4.82
2022-08-27T20:50:15.563Z,5.22
2022-08-27T20:52:44.336Z,5.80
2022-08-27T20:55:12.414Z,4.53
2022-08-27T20:58:01.140Z,3.33
2022-08-27T21:00:33.367Z,7.15
2022-08-27T21:03:00.234Z,4.55
2022-08-27T21:05:27.367Z,4.88
2022-08-27T21:07:54.156Z,6.57
2022-08-27T21:10:21.564Z,4.55
2022-08-27T21:12:49.360Z,7.20
2022-08-27T21:15:16.612Z,3.40
2022-08-27T21:17:43.564Z,5.18
2022-08-27T21:20:11.839Z,4.05
2022-08-27T21:22:39.932Z,4.97
2022-08-27T21:25:07.692Z,4.97
2022-08-27T21:27:34.816Z,4.63
2022-08-27T21:30:01.968Z,6.05
2022-08-27T21:32:28.779Z,4.05
2022-08-27T21:34:55.903Z,6.07
2022-08-27T21:37:22.933Z,2.13
2022-08-27T21:39:50.144Z,6.60
2022-08-27T21:42:17.098Z,5.50
2022-08-27T21:44:44.216Z,5.40
2022-08-27T21:47:11.606Z,2.72
2022-08-27T21:49:38.774Z,4.82
2022-08-27T21:52:06.618Z,4.25
2022-08-27T21:54:36.455Z,2.70
2022-08-27T21:57:04.531Z,4.38
2022-08-27T21:59:33.487Z,4.65
2022-08-27T22:02:01.295Z,5.90
2022-08-27T22:04:30.841Z,5.15
2022-08-27T22:06:59.059Z,5.78
2022-08-27T22:09:26.781Z,6.82
2022-08-27T22:11:54.020Z,6.43
2022-08-27T22:14:20.819Z,8.27
2022-08-27T22:16:48.231Z,5.35
2022-08-27T22:19:14.978Z,7.22
2022-08-27T22:21:42.104Z,5.40
2022-08-27T22:24:09.261Z,5.72
2022-08-27T22:26:36.568Z,7.03
2022-08-27T22:29:04.889Z,9.40
2022-08-27T22:31:32.614Z,6.30
2022-08-27T22:34:01.015Z,7.18
2022-08-27T22:36:28.162Z,5.50
2022-08-27T22:38:59.798Z,3.22
2022-08-27T22:41:32.695Z,4.13
2022-08-27T22:43:59.932Z,6.85
2022-08-27T22:46:27.214Z,5.57
2022-08-27T22:48:53.927Z,6.10
2022-08-27T22:51:21.624Z,5.00
2022-08-27T22:53:48.301Z,5.70
2022-08-27T22:56:15.485Z,4.30
2022-08-27T22:58:46.089Z,5.93
2022-08-27T23:01:13.769Z,7.80
2022-08-27T23:03:40.679Z,5.17
2022-08-27T23:06:07.919Z,4.17
2022-08-27T23:08:34.776Z,4.93
2022-08-27T23:11:03.355Z,4.10
2022-08-27T23:13:33.429Z,6.15
2022-08-27T23:16:01.167Z,8.60
2022-08-27T23:18:28.432Z,4.90
2022-08-27T23:20:55.547Z,6.03
2022-08-27T23:23:22.554Z,4.30
2022-08-27T23:26:12.241Z,6.35
2022-08-27T23:28:38.991Z,5.25
2022-08-27T23:31:06.197Z,7.75
2022-08-27T23:33:33.409Z,6.57
2022-08-27T23:36:00.613Z,5.40
2022-08-27T23:38:27.399Z,8.77
2022-08-27T23:40:54.524Z,7.40
2022-08-27T23:43:21.810Z,7.38
2022-08-27T23:45:48.592Z,6.70
2022-08-27T23:48:15.653Z,5.47
2022-08-27T23:50:42.900Z,7.83
2022-08-27T23:53:10.140Z,6.03
2022-08-27T23:55:40.081Z,3.90
2022-08-27T23:58:07.828Z,6.17
